Terminal Aerodrome Forecast
Issued by NWS Charleston, WV

Current Version | Previous Version | Text Only | Print | Product List | Glossary Off
Versions: 1 2 3 4 5 6 7 8 9 10 11 12 13 14 15 16 17 18 19 20 21 22 23 24 25 26

576
FTUS41 KRLX 221041 AAC
TAFEKN
TAF AMD
KEKN 221041Z 2211/2306 00000KT P6SM SHRA OVC060
      TEMPO 2211/2212 3SM SHRA
     FM221500 28006KT P6SM BKN250
     FM230500 00000KT P6SM -SHRA OVC035=

USA.gov is the U.S. government's official web portal to all federal, state and local government web resources and services.